LiveATC.Net - Listen to live air traffic control over the Internet!


ICAO: KRYY  IATA: RYY   Airport: Cobb County International Airport-McCollum Field
City: Atlanta   State/Province: Georgia
Country: United States   Continent: North America
KRYY METAR Weather: KRYY 200950Z AUTO VRB04KT 10SM OVC011 22/20 A3013 RMK AO2 SLP920 T02170200 $
KRYY Flight Activity (FlightAware)
KRYY Airport Info   (iFlightPlanner)
KRYY VFR Sectional Chart   (iFlightPlanner) 
KRYY IFR Low Chart   (iFlightPlanner) 

KRYY Gnd/Twr/CTAF
Feed Status: UP   Listeners: 0
Listen in your browser - HTML5 player (in browser, HTML5)
Click here to listen with your own player (launches your MP3 player)
KRYY Gnd/Twr/CTAF Audio Archives
FacilityFrequency
Area CTAF123.050
Mc Collum Ground119.000
Mc Collum Tower125.900

NOTICE

Unauthorized use prohibited. See LiveATC.net Terms of Service


Airport/ARTCC Code
Frequency Search
(e.g., 124.400, 128.75)
Site-wide search
 


Browse LiveATC Feeds
Top 50 LiveATC Feeds
LiveATC Feed Map
Bad Weather Areas

LiveATC FAQ
Offer LiveATC feed
Contact LiveATC.net
Press Inquiries

LiveATC on iPhone
LiveATC on Android

Windows Phone
Windows 8/10

LiveATC Mobile
(Mobile browser)

ATC Audio Archives
Interesting Recordings

LiveATC Forums


Home Page
About LiveATC.net
Make a Donation
Terms of Use
Privacy Policy

Canadian Air Freqs

AIRMETs/SIGMETs

FAA Airport Status
Nat'l Airspace Status
Arrival Demand Charts


Server Software By:
Icecast.org
Liquidsoap